Time;durP1;ratioP1;P1;durP2;ratioP2;P2;SDS_P1;SDS_P2;PMS_P1;PMS_P2;Temp;Humidity;BMP_temperature;BMP_pressure;BME280_temperature;BME280_humidity;BME280_pressure;Samples;Min_cycle;Max_cycle;Signal;HPM_P1;HPM_P2
2020/12/31 00:00:05;;;;;;;21.80;19.53;;;4.50;99.90;;;;;;6168781;23;20448;-84
2020/12/31 00:03:01;;;;;;;24.00;21.30;;;4.40;99.90;;;;;;6170045;23;20400;-84
2020/12/31 00:05:49;;;;;;;23.20;20.70;;;4.40;99.90;;;;;;6166881;23;20423;-84
2020/12/31 00:08:16;;;;;;;23.67;20.73;;;4.30;99.90;;;;;;6168333;23;20773;-84
2020/12/31 00:10:47;;;;;;;26.17;23.40;;;4.30;99.90;;;;;;6168405;23;20420;-84
2020/12/31 00:13:14;;;;;;;25.60;22.90;;;4.30;99.90;;;;;;6168841;23;20474;-84
2020/12/31 00:15:42;;;;;;;29.50;22.20;;;4.30;99.90;;;;;;6168948;23;20448;-83
2020/12/31 00:18:09;;;;;;;28.00;25.10;;;4.30;99.90;;;;;;6166755;23;20438;-83
2020/12/31 00:20:38;;;;;;;29.93;25.90;;;4.20;99.90;;;;;;6164828;23;20540;-83
2020/12/31 00:23:11;;;;;;;30.90;24.30;;;4.20;99.90;;;;;;6165580;23;20412;-83
2020/12/31 00:25:48;;;;;;;30.27;24.80;;;4.20;99.90;;;;;;6165011;23;20413;-83
2020/12/31 00:28:19;;;;;;;28.70;24.63;;;4.20;99.90;;;;;;6165220;23;20435;-83
2020/12/31 00:30:47;;;;;;;30.70;27.40;;;4.10;99.90;;;;;;6166321;23;20412;-83
2020/12/31 00:33:15;;;;;;;31.63;25.27;;;4.10;99.90;;;;;;6164822;23;20864;-83
2020/12/31 00:35:43;;;;;;;30.37;26.03;;;4.10;99.90;;;;;;6165090;23;20412;-83
2020/12/31 00:38:11;;;;;;;29.07;25.83;;;4.10;99.90;;;;;;6165055;23;20818;-83
2020/12/31 00:40:38;;;;;;;31.63;27.87;;;4.10;99.90;;;;;;6165783;23;20503;-83
2020/12/31 00:43:07;;;;;;;31.07;25.97;;;4.10;99.90;;;;;;6165176;23;20427;-83
2020/12/31 00:45:34;;;;;;;34.67;25.60;;;4.10;99.90;;;;;;6164939;23;20953;-83
2020/12/31 00:48:02;;;;;;;31.07;27.33;;;4.10;99.90;;;;;;6164861;23;20440;-83
2020/12/31 00:50:30;;;;;;;29.57;24.73;;;4.00;99.90;;;;;;6165084;23;20409;-83
2020/12/31 00:52:57;;;;;;;30.63;25.73;;;4.10;99.90;;;;;;6164606;23;20935;-83
2020/12/31 00:55:27;;;;;;;31.07;26.90;;;4.10;99.90;;;;;;6164457;23;20416;-83
2020/12/31 00:57:57;;;;;;;28.27;25.20;;;4.00;99.90;;;;;;6165500;23;20475;-83
2020/12/31 01:00:27;;;;;;;30.27;25.70;;;4.00;99.90;;;;;;6165241;23;20903;-83
2020/12/31 01:03:06;;;;;;;30.73;27.20;;;4.00;99.90;;;;;;6175785;23;20392;-83
2020/12/31 01:05:34;;;;;;;30.67;25.63;;;4.00;99.90;;;;;;6164489;23;20409;-83
2020/12/31 01:08:02;;;;;;;30.43;24.80;;;3.90;99.90;;;;;;6163954;23;20502;-84
2020/12/31 01:10:36;;;;;;;30.63;26.53;;;4.00;99.90;;;;;;6164569;23;20508;-84
2020/12/31 01:13:04;;;;;;;33.03;27.03;;;3.90;99.90;;;;;;6164007;23;20448;-84
2020/12/31 01:15:32;;;;;;;33.23;25.93;;;3.90;99.90;;;;;;6164433;23;20434;-84
2020/12/31 01:18:01;;;;;;;32.80;25.57;;;3.90;99.90;;;;;;6163513;23;20511;-84
2020/12/31 01:20:28;;;;;;;31.23;24.73;;;3.80;99.90;;;;;;6164465;23;20416;-84
2020/12/31 01:22:56;;;;;;;32.07;25.17;;;3.90;99.90;;;;;;6165145;23;20411;-84
2020/12/31 01:25:23;;;;;;;31.03;27.13;;;3.90;99.90;;;;;;6175514;23;20467;-84
2020/12/31 01:27:50;;;;;;;33.03;27.20;;;3.80;99.90;;;;;;6164442;23;20463;-84
2020/12/31 01:30:27;;;;;;;30.30;26.23;;;3.80;99.90;;;;;;6164108;23;20415;-84
2020/12/31 01:32:55;;;;;;;33.37;28.30;;;3.80;99.90;;;;;;6164096;23;20440;-84
2020/12/31 01:35:23;;;;;;;31.63;27.02;;;3.80;99.90;;;;;;6164042;23;20959;-84
2020/12/31 01:37:50;;;;;;;30.00;26.60;;;3.90;99.90;;;;;;6163819;23;20220;-84
2020/12/31 01:40:21;;;;;;;29.63;26.47;;;3.90;99.90;;;;;;6164858;23;20416;-84
2020/12/31 01:42:48;;;;;;;30.92;24.65;;;3.90;99.90;;;;;;6164830;23;20439;-84
2020/12/31 01:45:17;;;;;;;29.97;26.23;;;3.90;99.90;;;;;;6165602;23;20224;-84
2020/12/31 01:47:50;;;;;;;30.97;25.43;;;3.80;99.90;;;;;;6164693;23;20450;-84
2020/12/31 01:50:18;;;;;;;32.70;24.90;;;3.80;99.90;;;;;;6164872;23;20421;-84
2020/12/31 01:52:48;;;;;;;29.33;23.17;;;3.80;99.90;;;;;;6164369;23;20819;-84
2020/12/31 01:55:16;;;;;;;29.07;22.50;;;3.80;99.90;;;;;;6164309;23;20420;-84
2020/12/31 01:57:44;;;;;;;29.17;24.57;;;3.70;99.90;;;;;;6164146;23;20444;-84
2020/12/31 02:00:11;;;;;;;29.20;25.90;;;3.70;99.90;;;;;;6164900;23;20420;-84
2020/12/31 02:02:41;;;;;;;29.63;22.67;;;3.70;99.90;;;;;;6175633;23;20400;-84
2020/12/31 02:05:15;;;;;;;25.90;23.10;;;3.70;99.90;;;;;;6164240;23;20459;-84
2020/12/31 02:07:47;;;;;;;35.60;26.53;;;3.70;99.90;;;;;;6165049;23;20444;-84
2020/12/31 02:10:25;;;;;;;26.77;23.07;;;3.70;99.90;;;;;;6164919;23;20415;-84
2020/12/31 02:12:52;;;;;;;28.90;25.87;;;3.70;99.90;;;;;;6171309;23;20439;-84
2020/12/31 02:15:20;;;;;;;34.13;23.40;;;3.60;99.90;;;;;;6165890;23;20454;-84
2020/12/31 02:17:51;;;;;;;25.70;22.93;;;3.60;99.90;;;;;;6167294;23;20444;-84
2020/12/31 02:20:18;;;;;;;28.67;24.03;;;3.60;99.90;;;;;;6168785;23;20419;-84
2020/12/31 02:22:47;;;;;;;30.70;25.30;;;3.60;99.90;;;;;;6168477;23;20420;-84
2020/12/31 02:25:15;;;;;;;27.37;23.93;;;3.70;99.90;;;;;;6168196;23;20420;-84
2020/12/31 02:27:43;;;;;;;27.63;23.47;;;3.70;99.90;;;;;;6164790;23;20816;-84
2020/12/31 02:30:10;;;;;;;25.60;22.63;;;3.60;99.90;;;;;;6164196;23;20507;-84
2020/12/31 02:32:37;;;;;;;29.33;25.93;;;3.60;99.90;;;;;;6165080;23;20511;-84
2020/12/31 02:35:05;;;;;;;26.93;22.03;;;3.60;99.90;;;;;;6163677;23;20421;-83
2020/12/31 02:37:33;;;;;;;28.57;23.07;;;3.60;99.90;;;;;;6164345;23;20419;-83
2020/12/31 02:40:03;;;;;;;28.07;24.60;;;3.60;99.90;;;;;;6162994;23;20416;-85
2020/12/31 02:42:31;;;;;;;29.27;21.53;;;3.60;99.90;;;;;;6164154;23;20427;-84
2020/12/31 02:44:58;;;;;;;26.30;23.20;;;3.50;99.90;;;;;;6164499;23;20421;-84
2020/12/31 02:47:30;;;;;;;25.37;21.50;;;3.50;99.90;;;;;;6164308;23;20427;-84
2020/12/31 02:49:58;;;;;;;27.87;23.57;;;3.50;99.90;;;;;;6163687;23;20415;-84
2020/12/31 02:52:25;;;;;;;25.17;22.47;;;3.50;99.90;;;;;;6163894;23;20487;-84
2020/12/31 02:54:52;;;;;;;27.67;22.80;;;3.50;99.90;;;;;;6163994;23;20753;-84
2020/12/31 02:57:21;;;;;;;28.50;21.93;;;3.50;99.90;;;;;;6164031;23;20513;-84
2020/12/31 02:59:48;;;;;;;27.10;24.13;;;3.50;99.90;;;;;;6163951;23;20418;-84
2020/12/31 03:02:15;;;;;;;34.40;24.30;;;3.50;99.90;;;;;;6163533;23;20423;-84
2020/12/31 03:04:43;;;;;;;27.27;24.20;;;3.40;99.90;;;;;;6164413;23;20444;-84
2020/12/31 03:07:10;;;;;;;27.93;22.40;;;3.40;99.90;;;;;;6164142;23;20479;-84
2020/12/31 03:09:37;;;;;;;29.93;25.00;;;3.50;99.90;;;;;;6163596;23;20436;-84
2020/12/31 03:12:05;;;;;;;29.17;22.83;;;3.40;99.90;;;;;;6163931;23;20470;-84
2020/12/31 03:14:33;;;;;;;27.17;23.23;;;3.50;99.90;;;;;;6165662;23;20431;-84
2020/12/31 03:17:00;;;;;;;27.10;23.23;;;3.40;99.90;;;;;;6166130;23;20424;-84
2020/12/31 03:19:28;;;;;;;26.70;23.80;;;3.40;99.90;;;;;;6178194;23;20449;-84
2020/12/31 03:21:55;;;;;;;31.10;23.93;;;3.40;99.90;;;;;;6165252;23;20422;-84
2020/12/31 03:24:22;;;;;;;30.93;24.33;;;3.40;99.90;;;;;;6166109;23;20426;-84
2020/12/31 03:26:50;;;;;;;29.20;23.93;;;3.40;99.90;;;;;;6165526;23;20420;-84
2020/12/31 03:29:17;;;;;;;28.87;22.00;;;3.40;99.90;;;;;;6165788;23;20438;-84
2020/12/31 03:31:45;;;;;;;29.17;25.13;;;3.30;99.90;;;;;;6165760;23;20415;-84
2020/12/31 03:34:19;;;;;;;29.03;23.27;;;3.40;99.90;;;;;;6166130;23;20442;-84
2020/12/31 03:36:46;;;;;;;28.33;25.27;;;3.30;99.90;;;;;;6165731;23;20817;-84
2020/12/31 03:39:13;;;;;;;27.47;24.03;;;3.40;99.90;;;;;;6165402;23;20471;-84
2020/12/31 03:41:41;;;;;;;29.83;23.60;;;3.40;99.90;;;;;;6165882;23;20415;-83
2020/12/31 03:44:11;;;;;;;28.43;22.10;;;3.30;99.90;;;;;;6165257;23;20425;-84
2020/12/31 03:46:41;;;;;;;27.43;24.47;;;3.30;99.90;;;;;;6164890;23;20415;-84
2020/12/31 03:49:09;;;;;;;29.77;25.63;;;3.30;99.90;;;;;;6165214;23;20444;-84
2020/12/31 03:51:40;;;;;;;29.87;23.80;;;3.30;99.90;;;;;;6164610;23;20425;-84
2020/12/31 03:54:08;;;;;;;29.37;26.10;;;3.30;99.90;;;;;;6164159;23;20925;-84
2020/12/31 03:56:36;;;;;;;36.43;28.43;;;3.30;99.90;;;;;;6165526;23;20467;-84
2020/12/31 03:59:05;;;;;;;27.93;24.73;;;3.30;99.90;;;;;;6176308;23;20523;-84
2020/12/31 04:01:34;;;;;;;31.13;27.40;;;3.30;99.90;;;;;;6165094;23;20454;-84
2020/12/31 04:04:01;;;;;;;30.03;24.03;;;3.30;99.90;;;;;;6176627;23;20411;-84
2020/12/31 04:06:30;;;;;;;30.40;26.17;;;3.30;99.90;;;;;;6165053;23;20834;-84
2020/12/31 04:08:57;;;;;;;31.80;27.10;;;3.30;99.90;;;;;;6164894;23;20448;-84
2020/12/31 04:11:25;;;;;;;30.17;26.90;;;3.30;99.90;;;;;;6165402;23;20443;-84
2020/12/31 04:13:54;;;;;;;27.10;24.17;;;3.30;99.90;;;;;;6166084;23;20444;-84
2020/12/31 04:16:22;;;;;;;27.10;23.37;;;3.40;99.90;;;;;;6169887;23;20420;-83
2020/12/31 04:18:49;;;;;;;27.40;23.63;;;3.30;99.90;;;;;;6165455;23;20540;-84
2020/12/31 04:21:21;;;;;;;30.27;25.60;;;3.30;99.90;;;;;;6165171;23;20487;-84
2020/12/31 04:23:55;;;;;;;31.77;27.67;;;3.30;99.90;;;;;;6165505;23;20867;-84
2020/12/31 04:26:22;;;;;;;29.87;26.37;;;3.30;99.90;;;;;;6165538;23;20422;-84
2020/12/31 04:28:50;;;;;;;29.83;26.67;;;3.30;99.90;;;;;;6165591;23;20436;-84
2020/12/31 04:31:17;;;;;;;29.60;26.43;;;3.30;99.90;;;;;;6165663;23;20420;-84
2020/12/31 04:33:45;;;;;;;32.03;27.40;;;3.40;99.90;;;;;;6164956;23;20488;-84
2020/12/31 04:36:12;;;;;;;32.47;27.70;;;3.30;99.90;;;;;;6176970;23;20428;-84
2020/12/31 04:38:40;;;;;;;31.53;27.43;;;3.30;99.90;;;;;;6164633;23;20463;-84
2020/12/31 04:41:08;;;;;;;32.60;28.53;;;3.30;99.90;;;;;;6166090;23;20445;-84
2020/12/31 04:43:36;;;;;;;32.33;28.90;;;3.40;99.90;;;;;;6165389;23;20751;-84
2020/12/31 04:46:08;;;;;;;31.80;26.07;;;3.40;99.90;;;;;;6164899;23;20420;-84
2020/12/31 04:48:39;;;;;;;32.87;29.43;;;3.40;99.90;;;;;;6165464;23;20779;-84
2020/12/31 04:51:09;;;;;;;32.63;28.03;;;3.40;99.90;;;;;;6165399;23;20474;-84
2020/12/31 04:53:37;;;;;;;32.50;29.10;;;3.50;99.90;;;;;;6164812;23;20823;-84
2020/12/31 04:56:05;;;;;;;32.92;28.30;;;3.40;99.90;;;;;;6163618;23;20484;-84
2020/12/31 04:58:37;;;;;;;30.73;27.43;;;3.50;99.90;;;;;;6164876;23;20189;-84
2020/12/31 05:01:05;;;;;;;29.53;26.33;;;3.50;99.90;;;;;;6165265;23;20441;-84
2020/12/31 05:03:32;;;;;;;30.97;27.73;;;3.50;99.90;;;;;;6165613;23;20472;-84
2020/12/31 05:06:04;;;;;;;28.07;25.13;;;3.50;99.90;;;;;;6165305;23;20483;-84
2020/12/31 05:08:32;;;;;;;30.33;27.10;;;3.50;99.90;;;;;;6165207;23;20440;-84
2020/12/31 05:10:59;;;;;;;28.40;25.40;;;3.50;99.90;;;;;;6165529;23;20446;-84
2020/12/31 05:13:28;;;;;;;30.50;26.33;;;3.50;99.90;;;;;;6164676;23;20479;-84
2020/12/31 05:15:56;;;;;;;32.97;26.03;;;3.50;99.90;;;;;;6164150;23;20424;-84
2020/12/31 05:18:25;;;;;;;28.33;25.33;;;3.50;99.90;;;;;;6164925;23;20442;-84
2020/12/31 05:20:54;;;;;;;30.60;26.77;;;3.50;99.90;;;;;;6164874;23;20485;-84
2020/12/31 05:23:22;;;;;;;30.60;27.40;;;3.50;99.90;;;;;;6165188;23;20932;-84
2020/12/31 05:25:50;;;;;;;30.10;26.33;;;3.50;99.90;;;;;;6164284;23;20452;-84
2020/12/31 05:28:26;;;;;;;29.57;26.33;;;3.50;99.90;;;;;;6164172;23;20447;-84
2020/12/31 05:30:55;;;;;;;35.20;29.90;;;3.50;99.90;;;;;;6164382;23;20423;-84
2020/12/31 05:33:31;;;;;;;33.47;29.87;;;3.50;99.90;;;;;;6163787;23;20861;-84
2020/12/31 05:36:19;;;;;;;36.77;30.50;;;3.60;99.90;;;;;;6176163;23;20381;-84
2020/12/31 05:39:03;;;;;;;31.97;28.37;;;3.50;99.90;;;;;;6164428;23;20440;-84
2020/12/31 05:41:33;;;;;;;35.50;30.40;;;3.60;99.90;;;;;;6165135;23;20884;-84
2020/12/31 05:44:04;;;;;;;34.70;29.93;;;3.60;99.90;;;;;;6166339;23;20419;-84
2020/12/31 05:46:31;;;;;;;35.37;31.57;;;3.60;99.90;;;;;;6164259;23;20416;-84
2020/12/31 05:49:01;;;;;;;35.87;31.27;;;3.60;99.90;;;;;;6164369;23;20440;-84
2020/12/31 05:51:31;;;;;;;34.10;29.23;;;3.60;99.90;;;;;;6164426;23;20423;-83
2020/12/31 05:54:06;;;;;;;39.33;32.13;;;3.60;99.90;;;;;;6164218;23;20436;-83
2020/12/31 05:56:35;;;;;;;35.50;29.97;;;3.60;99.90;;;;;;6163976;23;20873;-83
2020/12/31 05:59:07;;;;;;;37.27;33.27;;;3.60;99.90;;;;;;6164405;23;20448;-83
2020/12/31 06:01:38;;;;;;;39.00;31.90;;;3.60;99.90;;;;;;6163756;23;20413;-83
2020/12/31 06:04:19;;;;;;;37.20;30.03;;;3.60;99.90;;;;;;6174891;23;20400;-83
2020/12/31 06:06:50;;;;;;;34.23;30.20;;;3.70;99.90;;;;;;6164069;23;20483;-83
2020/12/31 06:09:27;;;;;;;33.83;28.20;;;3.70;99.90;;;;;;6163076;23;20498;-83
2020/12/31 06:11:59;;;;;;;36.00;31.20;;;3.70;99.90;;;;;;6163706;23;20917;-83
2020/12/31 06:14:28;;;;;;;36.37;30.73;;;3.70;99.90;;;;;;6164022;23;20763;-83
2020/12/31 06:16:57;;;;;;;36.33;30.40;;;3.70;99.90;;;;;;6163249;23;20447;-84
2020/12/31 06:19:32;;;;;;;33.10;28.87;;;3.70;99.90;;;;;;6163555;23;20511;-83
2020/12/31 06:22:05;;;;;;;35.10;31.23;;;3.70;99.90;;;;;;6164355;23;20411;-83
2020/12/31 06:24:40;;;;;;;34.87;27.60;;;3.70;99.90;;;;;;6163325;23;20415;-83
2020/12/31 06:27:09;;;;;;;33.93;30.37;;;3.70;99.90;;;;;;6162428;23;20409;-83
2020/12/31 06:29:46;;;;;;;34.77;30.47;;;3.70;99.90;;;;;;6163055;23;20440;-84
2020/12/31 06:32:19;;;;;;;31.37;27.93;;;3.80;99.90;;;;;;6174836;23;20383;-84
2020/12/31 06:34:48;;;;;;;33.67;29.60;;;3.80;99.90;;;;;;6163422;23;20487;-84
2020/12/31 06:37:15;;;;;;;35.33;29.67;;;3.70;99.90;;;;;;6164088;23;20411;-84
2020/12/31 06:39:43;;;;;;;33.67;30.00;;;3.80;99.90;;;;;;6170012;23;20448;-83
2020/12/31 06:42:10;;;;;;;32.37;27.40;;;3.80;99.90;;;;;;6175625;23;20451;-84
2020/12/31 06:44:41;;;;;;;32.40;27.63;;;3.80;99.90;;;;;;6164220;23;20416;-83
2020/12/31 06:47:09;;;;;;;37.13;28.93;;;3.70;99.90;;;;;;6165109;23;20409;-83
2020/12/31 06:49:55;;;;;;;30.07;26.83;;;3.80;99.90;;;;;;6165481;23;20467;-83
2020/12/31 06:52:24;;;;;;;32.17;28.73;;;3.80;99.90;;;;;;6165098;23;20470;-84
2020/12/31 06:54:51;;;;;;;32.87;27.40;;;3.70;99.90;;;;;;6166486;23;20443;-83
2020/12/31 06:57:46;;;;;;;31.93;26.43;;;3.70;99.90;;;;;;6165562;23;20486;-83
2020/12/31 07:00:29;;;;;;;39.33;34.73;;;3.80;99.90;;;;;;6098533;23;20431;-84
2020/12/31 07:02:56;;;;;;;33.80;30.17;;;3.80;99.90;;;;;;6164382;23;20412;-83
2020/12/31 07:05:25;;;;;;;35.30;29.60;;;3.80;99.90;;;;;;6164766;23;20799;-84
2020/12/31 07:07:55;;;;;;;34.47;30.93;;;3.80;99.90;;;;;;6165122;23;20447;-84
2020/12/31 07:10:22;;;;;;;34.13;29.60;;;3.80;99.90;;;;;;6164879;23;20451;-84
2020/12/31 07:12:49;;;;;;;32.30;28.83;;;3.90;99.90;;;;;;6165313;23;20200;-84
2020/12/31 07:15:17;;;;;;;33.20;29.50;;;3.90;99.90;;;;;;6165933;23;20412;-84
2020/12/31 07:17:47;;;;;;;30.80;27.20;;;3.90;99.90;;;;;;6165841;23;20495;-84
2020/12/31 07:20:16;;;;;;;30.77;26.07;;;3.80;99.90;;;;;;6165620;23;20424;-84
2020/12/31 07:22:46;;;;;;;32.90;29.40;;;3.80;99.90;;;;;;6164604;23;20420;-84
2020/12/31 07:25:15;;;;;;;34.60;28.67;;;3.80;99.90;;;;;;6164892;23;20416;-83
2020/12/31 07:27:44;;;;;;;31.67;27.10;;;3.80;99.90;;;;;;6164136;23;20543;-83
2020/12/31 07:30:13;;;;;;;34.43;30.73;;;3.80;99.90;;;;;;6164665;23;20447;-83
2020/12/31 07:33:03;;;;;;;36.07;30.43;;;3.80;99.90;;;;;;6164446;23;20503;-83
2020/12/31 07:35:36;;;;;;;31.83;26.90;;;3.80;99.90;;;;;;6164560;23;20408;-83
2020/12/31 07:38:06;;;;;;;32.40;27.50;;;3.80;99.90;;;;;;6176407;23;20419;-83
2020/12/31 07:40:40;;;;;;;31.00;25.43;;;3.80;99.90;;;;;;6165231;23;20427;-83
2020/12/31 07:43:13;;;;;;;32.70;29.30;;;3.80;99.90;;;;;;6167912;23;20412;-83
2020/12/31 07:45:46;;;;;;;30.23;26.80;;;3.80;99.90;;;;;;6166584;23;20439;-84
2020/12/31 07:48:15;;;;;;;31.13;26.70;;;3.80;99.90;;;;;;6167674;23;20438;-83
2020/12/31 07:50:44;;;;;;;31.93;27.80;;;3.90;99.90;;;;;;6166695;23;20424;-82
2020/12/31 07:53:12;;;;;;;33.73;27.17;;;3.80;99.90;;;;;;6166339;23;20439;-83
2020/12/31 07:55:47;;;;;;;30.03;26.93;;;3.90;99.90;;;;;;6166393;23;20471;-83
2020/12/31 07:58:16;;;;;;;30.90;27.70;;;3.80;99.90;;;;;;6177714;23;20458;-84
2020/12/31 08:00:44;;;;;;;27.37;24.40;;;3.90;99.90;;;;;;6167568;23;20416;-83
2020/12/31 08:03:12;;;;;;;28.00;25.30;;;3.80;99.90;;;;;;6166810;23;20412;-83
2020/12/31 08:05:39;;;;;;;25.67;22.90;;;3.80;99.90;;;;;;6165641;23;20416;-84
2020/12/31 08:08:07;;;;;;;29.20;25.60;;;3.90;99.90;;;;;;6165967;23;20444;-83
2020/12/31 08:10:35;;;;;;;26.77;23.30;;;3.80;99.90;;;;;;6167354;23;20451;-83
2020/12/31 08:13:04;;;;;;;27.20;24.37;;;3.80;99.90;;;;;;6173169;23;20815;-84
2020/12/31 08:15:32;;;;;;;28.53;25.53;;;3.80;99.90;;;;;;6168549;23;20420;-84
2020/12/31 08:18:02;;;;;;;29.07;25.97;;;3.80;99.90;;;;;;6169944;23;20443;-84
2020/12/31 08:20:32;;;;;;;26.53;23.40;;;3.80;99.90;;;;;;6170641;23;20408;-84
2020/12/31 08:23:03;;;;;;;26.43;23.53;;;3.80;99.90;;;;;;6169481;23;20420;-84
2020/12/31 08:25:37;;;;;;;29.53;26.53;;;3.80;99.90;;;;;;6168125;23;20412;-83
2020/12/31 08:28:06;;;;;;;28.83;25.90;;;3.90;99.90;;;;;;6167837;23;20445;-83
2020/12/31 08:30:35;;;;;;;24.53;21.90;;;3.90;99.90;;;;;;6166285;23;20418;-84
2020/12/31 08:33:04;;;;;;;25.33;21.03;;;3.80;99.90;;;;;;6166093;23;20440;-82
2020/12/31 08:35:33;;;;;;;24.50;21.90;;;3.80;99.90;;;;;;6166657;23;20409;-83
2020/12/31 08:38:06;;;;;;;26.20;23.20;;;3.80;99.90;;;;;;6182503;23;20451;-82
2020/12/31 08:40:42;;;;;;;29.30;26.30;;;3.80;99.90;;;;;;6173837;23;20563;-82
2020/12/31 08:43:16;;;;;;;28.30;24.60;;;3.90;99.90;;;;;;6173630;23;20415;-82
2020/12/31 08:45:44;;;;;;;29.90;26.87;;;3.90;99.90;;;;;;6185340;23;20380;-83
2020/12/31 08:48:21;;;;;;;26.60;23.80;;;3.90;99.90;;;;;;6173886;23;20939;-83
2020/12/31 08:51:03;;;;;;;26.70;23.80;;;3.90;99.90;;;;;;6169516;23;20418;-83
2020/12/31 08:53:32;;;;;;;28.53;24.97;;;3.90;99.90;;;;;;6180271;23;20830;-83
2020/12/31 08:56:00;;;;;;;28.57;25.63;;;3.90;99.90;;;;;;6168501;23;20470;-83
2020/12/31 08:58:29;;;;;;;30.27;24.07;;;3.90;99.90;;;;;;6166739;23;20466;-85
2020/12/31 09:00:56;;;;;;;29.20;26.10;;;3.90;99.90;;;;;;6167650;23;20419;-85
2020/12/31 09:03:24;;;;;;;27.80;24.80;;;3.90;99.90;;;;;;6172514;23;20479;-85
2020/12/31 09:05:56;;;;;;;28.70;24.40;;;3.90;99.90;;;;;;6179090;23;20424;-85
2020/12/31 09:08:23;;;;;;;35.80;29.93;;;3.90;99.90;;;;;;6162606;23;20519;-85
2020/12/31 09:11:01;;;;;;;28.50;25.00;;;4.00;99.90;;;;;;6175204;23;20427;-85
2020/12/31 09:13:34;;;;;;;29.90;26.57;;;4.00;99.90;;;;;;6163825;23;20822;-85
2020/12/31 09:16:09;;;;;;;30.07;25.80;;;4.00;99.90;;;;;;6163747;23;20459;-86
2020/12/31 09:18:36;;;;;;;31.97;27.73;;;4.00;99.90;;;;;;6164012;23;20439;-86
2020/12/31 09:21:04;;;;;;;30.97;26.30;;;4.00;99.90;;;;;;6163535;23;20507;-86
2020/12/31 09:23:31;;;;;;;30.50;27.17;;;4.00;99.90;;;;;;6163963;23;20416;-85
2020/12/31 09:25:59;;;;;;;29.37;24.87;;;4.00;99.90;;;;;;6164787;23;20467;-85
2020/12/31 09:28:28;;;;;;;29.23;25.20;;;4.00;99.90;;;;;;6164159;23;20468;-85
2020/12/31 09:30:56;;;;;;;30.43;25.13;;;4.10;99.90;;;;;;6177032;23;20439;-85
2020/12/31 09:33:24;;;;;;;29.47;25.90;;;4.10;99.90;;;;;;6165191;23;20508;-85
2020/12/31 09:35:52;;;;;;;28.37;23.00;;;4.10;99.90;;;;;;6177369;23;20424;-85
2020/12/31 09:38:19;;;;;;;29.57;24.47;;;4.10;99.90;;;;;;6165831;23;20444;-85
2020/12/31 09:40:47;;;;;;;29.93;24.23;;;4.10;99.90;;;;;;6165457;23;20416;-85
2020/12/31 09:43:15;;;;;;;27.80;23.17;;;4.10;99.90;;;;;;6165688;23;20884;-85
2020/12/31 09:45:42;;;;;;;25.60;22.33;;;4.20;99.90;;;;;;6165206;23;20466;-85
2020/12/31 09:48:09;;;;;;;25.60;22.40;;;4.20;99.90;;;;;;6166029;23;20444;-85
2020/12/31 09:50:36;;;;;;;25.70;22.60;;;4.20;99.90;;;;;;6165080;23;20411;-85
2020/12/31 09:53:04;;;;;;;26.20;22.97;;;4.20;99.90;;;;;;6165485;23;20417;-85
2020/12/31 09:55:42;;;;;;;26.53;23.43;;;4.30;99.90;;;;;;6165446;23;20617;-85
2020/12/31 09:58:09;;;;;;;27.73;23.47;;;4.30;99.90;;;;;;6163847;23;20449;-85
2020/12/31 10:00:37;;;;;;;25.40;22.70;;;4.30;99.90;;;;;;6163705;23;20450;-85
2020/12/31 10:03:05;;;;;;;24.90;22.30;;;4.40;99.90;;;;;;6163895;23;20488;-85
2020/12/31 10:05:32;;;;;;;23.27;20.67;;;4.30;99.90;;;;;;6163218;23;20427;-85
2020/12/31 10:07:59;;;;;;;24.00;21.40;;;4.40;99.90;;;;;;6163041;23;20499;-85
2020/12/31 10:10:27;;;;;;;22.67;20.20;;;4.40;99.90;;;;;;6162411;23;20506;-85
2020/12/31 10:12:54;;;;;;;23.50;20.90;;;4.40;99.90;;;;;;6163503;23;20459;-85
2020/12/31 10:15:21;;;;;;;21.43;19.27;;;4.40;99.90;;;;;;6165388;23;20439;-85
2020/12/31 10:17:49;;;;;;;25.07;20.70;;;4.40;99.90;;;;;;6166371;23;20436;-85
2020/12/31 10:20:16;;;;;;;22.52;18.92;;;4.40;99.90;;;;;;6164433;23;20868;-85
2020/12/31 10:22:44;;;;;;;20.83;18.60;;;4.60;99.90;;;;;;6179379;23;20173;-85
2020/12/31 10:25:11;;;;;;;20.23;18.13;;;4.50;99.90;;;;;;6177324;23;20455;-84
2020/12/31 10:27:41;;;;;;;20.63;18.52;;;4.50;99.90;;;;;;6166553;23;20427;-85
2020/12/31 10:30:08;;;;;;;23.17;20.10;;;4.50;99.90;;;;;;6164601;23;20173;-86
2020/12/31 10:32:35;;;;;;;19.43;17.33;;;4.50;99.90;;;;;;6174079;23;20397;-85
2020/12/31 10:35:03;;;;;;;22.23;19.93;;;4.50;99.90;;;;;;6163147;23;20498;-85
2020/12/31 10:37:31;;;;;;;20.83;18.67;;;4.50;99.90;;;;;;6162622;23;20727;-85
2020/12/31 10:39:58;;;;;;;18.97;16.97;;;4.50;99.90;;;;;;6163836;23;20417;-85
2020/12/31 10:42:25;;;;;;;21.20;18.90;;;4.50;99.90;;;;;;6164030;23;20446;-85
2020/12/31 10:44:52;;;;;;;20.80;18.57;;;4.50;99.90;;;;;;6163293;23;20405;-85
2020/12/31 10:47:20;;;;;;;19.27;16.67;;;4.50;99.90;;;;;;6163385;23;20443;-85
2020/12/31 10:49:47;;;;;;;18.27;16.37;;;4.50;99.90;;;;;;6163087;23;20490;-85
2020/12/31 10:52:15;;;;;;;19.50;17.47;;;4.50;99.90;;;;;;6164494;23;20462;-85
2020/12/31 10:54:45;;;;;;;17.83;15.93;;;4.50;99.90;;;;;;6165622;23;20545;-85
2020/12/31 10:57:25;;;;;;;19.00;17.00;;;4.50;99.90;;;;;;6176154;23;20383;-85
2020/12/31 10:59:55;;;;;;;18.20;16.07;;;4.60;99.90;;;;;;6163503;23;20503;-85
2020/12/31 11:02:22;;;;;;;18.13;16.23;;;4.60;99.90;;;;;;6165342;23;20482;-85
2020/12/31 11:04:49;;;;;;;17.67;15.93;;;4.60;99.90;;;;;;6176919;23;20454;-85
2020/12/31 11:07:17;;;;;;;17.40;15.60;;;4.60;99.90;;;;;;6168649;23;20451;-85
2020/12/31 11:09:45;;;;;;;16.10;14.37;;;4.60;99.90;;;;;;6173380;23;20440;-85
2020/12/31 11:12:12;;;;;;;18.13;16.20;;;4.60;99.90;;;;;;6176003;23;20416;-85
2020/12/31 11:14:43;;;;;;;20.77;15.60;;;4.60;99.90;;;;;;6175979;23;20452;-85
2020/12/31 11:17:13;;;;;;;17.43;15.60;;;4.60;99.90;;;;;;6177798;23;20513;-85
2020/12/31 11:19:42;;;;;;;16.50;14.80;;;4.60;99.90;;;;;;6163113;23;20451;-85
2020/12/31 11:22:10;;;;;;;20.00;14.93;;;4.60;99.90;;;;;;6163915;23;20416;-85
2020/12/31 11:24:38;;;;;;;16.23;14.63;;;4.60;99.90;;;;;;6165072;23;20908;-85
2020/12/31 11:27:06;;;;;;;15.30;13.70;;;4.60;99.90;;;;;;6162533;23;20403;-85
2020/12/31 11:29:33;;;;;;;15.40;13.80;;;4.60;99.90;;;;;;6161196;23;20499;-84
2020/12/31 11:32:01;;;;;;;15.47;13.87;;;4.60;99.90;;;;;;6162361;23;20443;-84
2020/12/31 11:34:28;;;;;;;15.10;13.53;;;4.60;99.90;;;;;;6163709;23;20440;-84
2020/12/31 11:36:56;;;;;;;16.00;14.50;;;4.60;99.90;;;;;;6165088;23;20475;-84
2020/12/31 11:39:23;;;;;;;13.63;12.20;;;4.60;99.90;;;;;;6163994;23;20440;-84
2020/12/31 11:41:57;;;;;;;14.03;12.70;;;4.60;99.90;;;;;;6165236;23;20413;-84
2020/12/31 11:44:24;;;;;;;14.60;13.20;;;4.60;99.90;;;;;;6165214;23;20409;-85
2020/12/31 11:46:52;;;;;;;14.57;13.17;;;4.70;99.90;;;;;;6166178;23;20446;-84
2020/12/31 11:49:19;;;;;;;13.30;11.97;;;4.70;99.90;;;;;;6165450;23;20444;-84
2020/12/31 11:51:46;;;;;;;12.53;11.33;;;4.70;99.90;;;;;;6165298;23;20747;-84
2020/12/31 11:54:13;;;;;;;12.67;11.37;;;4.70;99.90;;;;;;6165309;23;20449;-84
2020/12/31 11:56:45;;;;;;;13.13;10.97;;;4.70;99.90;;;;;;6164766;23;20423;-84
2020/12/31 11:59:13;;;;;;;12.90;11.50;;;4.80;99.90;;;;;;6163814;23;20451;-85
2020/12/31 12:01:40;;;;;;;12.20;10.17;;;4.80;99.90;;;;;;6164393;23;20416;-84
2020/12/31 12:04:07;;;;;;;13.57;11.30;;;4.80;99.90;;;;;;6164698;23;20428;-85
2020/12/31 12:06:35;;;;;;;13.03;11.70;;;4.80;99.90;;;;;;6166277;23;20872;-84
2020/12/31 12:09:03;;;;;;;12.17;10.97;;;4.80;99.90;;;;;;6167147;23;20444;-84
2020/12/31 12:11:31;;;;;;;13.50;12.10;;;4.80;99.90;;;;;;6164976;23;20427;-85
2020/12/31 12:13:58;;;;;;;12.47;11.03;;;4.80;99.90;;;;;;6163103;23;20491;-84
2020/12/31 12:16:26;;;;;;;12.30;11.10;;;4.80;99.90;;;;;;6162307;23;20420;-85
2020/12/31 12:18:53;;;;;;;12.10;10.50;;;4.80;99.90;;;;;;6165768;23;20436;-84
2020/12/31 12:21:21;;;;;;;11.20;10.10;;;4.80;99.90;;;;;;6170797;23;20447;-85
2020/12/31 12:23:48;;;;;;;12.63;11.33;;;4.80;99.90;;;;;;6171745;23;20412;-85
2020/12/31 12:26:17;;;;;;;11.60;10.50;;;4.80;99.90;;;;;;6172067;23;20415;-85
2020/12/31 12:28:44;;;;;;;12.80;11.23;;;4.80;99.90;;;;;;6172988;23;20439;-85
2020/12/31 12:31:11;;;;;;;14.07;12.67;;;4.80;99.90;;;;;;6171350;23;20464;-85
2020/12/31 12:33:40;;;;;;;20.70;17.43;;;4.80;99.90;;;;;;6170117;23;20412;-85
2020/12/31 12:36:07;;;;;;;13.63;12.23;;;4.70;99.90;;;;;;6168855;23;20444;-85
2020/12/31 12:38:35;;;;;;;18.60;16.60;;;4.80;99.90;;;;;;6167009;23;20436;-85
2020/12/31 12:41:02;;;;;;;16.77;15.07;;;4.80;99.90;;;;;;6167871;23;20412;-85
2020/12/31 12:43:30;;;;;;;17.47;15.77;;;4.80;99.90;;;;;;6171091;23;20476;-85
2020/12/31 12:45:57;;;;;;;15.67;14.17;;;4.80;99.90;;;;;;6168631;23;20507;-85